Time;durP1;ratioP1;P1;durP2;ratioP2;P2;SDS_P1;SDS_P2;PMS_P1;PMS_P2;Temp;Humidity;BMP_temperature;BMP_pressure;BME280_temperature;BME280_humidity;BME280_pressure;Samples;Min_cycle;Max_cycle;Signal;HPM_P1;HPM_P2
2023/05/05 00:03:19;;;;;;;10.33;6.03;;;;;8.40;96506.00;;;;8283740;28;20229;-68
2023/05/05 00:07:22;;;;;;;13.40;6.53;;;;;8.30;96504.00;;;;8289352;28;20202;-68
2023/05/05 00:11:30;;;;;;;8.80;6.17;;;;;8.30;96506.00;;;;8286633;28;20202;-69
2023/05/05 00:15:37;;;;;;;10.03;6.30;;;;;8.10;96507.00;;;;8274477;28;20631;-68
2023/05/05 00:19:41;;;;;;;11.30;6.70;;;;;7.90;96508.00;;;;8270085;28;20250;-68
2023/05/05 00:23:44;;;;;;;11.67;7.00;;;;;7.80;96503.00;;;;8287785;28;20198;-68
2023/05/05 00:27:47;;;;;;;10.70;6.83;;;;;7.70;96495.00;;;;8273389;28;20205;-68
2023/05/05 00:31:55;;;;;;;9.40;5.57;;;;;7.60;96498.00;;;;8280629;28;20209;-68
2023/05/05 00:35:58;;;;;;;13.43;6.93;;;;;7.50;96490.00;;;;8270675;28;20264;-68
2023/05/05 00:40:01;;;;;;;11.83;6.63;;;;;7.40;96495.00;;;;8274986;28;20230;-68
2023/05/05 00:44:06;;;;;;;11.47;6.90;;;;;7.40;96487.00;;;;8276049;28;20225;-68
2023/05/05 00:48:11;;;;;;;16.20;7.50;;;;;7.50;96485.00;;;;8274848;28;20210;-68
2023/05/05 00:52:16;;;;;;;13.13;6.40;;;;;7.60;96492.00;;;;8275476;28;20202;-68
2023/05/05 00:56:20;;;;;;;10.93;6.50;;;;;7.60;96477.00;;;;8272458;28;20198;-68
2023/05/05 01:00:27;;;;;;;15.43;6.50;;;;;7.70;96469.00;;;;8272955;28;20821;-68
2023/05/05 01:04:35;;;;;;;9.50;6.50;;;;;7.70;96474.00;;;;8271033;28;20235;-69
2023/05/05 01:08:51;;;;;;;11.03;6.33;;;;;7.60;96473.00;;;;8277572;28;20876;-69
2023/05/05 01:13:08;;;;;;;10.50;6.37;;;;;7.60;96470.00;;;;8273602;28;20208;-69
2023/05/05 01:17:17;;;;;;;12.00;5.97;;;;;7.50;96464.00;;;;8269341;28;20277;-68
2023/05/05 01:21:30;;;;;;;14.90;6.30;;;;;7.40;96466.00;;;;8272072;28;20237;-68
2023/05/05 01:26:10;;;;;;;8.70;6.00;;;;;7.30;96466.00;;;;8270764;28;20211;-68
2023/05/05 01:30:29;;;;;;;11.03;7.23;;;;;7.20;96472.00;;;;8274198;28;20194;-68
2023/05/05 01:34:38;;;;;;;14.40;7.17;;;;;7.10;96463.00;;;;8275760;28;20297;-68
2023/05/05 01:38:44;;;;;;;11.90;7.17;;;;;7.10;96467.00;;;;8270420;28;20222;-68
2023/05/05 01:42:49;;;;;;;9.10;6.27;;;;;7.00;96462.00;;;;8292374;28;20213;-68
2023/05/05 01:46:53;;;;;;;12.77;6.53;;;;;7.00;96457.00;;;;8281238;28;20243;-68
2023/05/05 01:51:13;;;;;;;13.00;6.37;;;;;6.90;96458.00;;;;8282845;28;20255;-68
2023/05/05 01:55:18;;;;;;;13.27;6.67;;;;;6.90;96466.00;;;;8282304;28;20202;-68
2023/05/05 01:59:25;;;;;;;13.77;7.40;;;;;6.80;96458.00;;;;8283086;28;20316;-68
2023/05/05 02:03:32;;;;;;;14.00;7.27;;;;;6.80;96463.00;;;;8272040;28;20245;-68
2023/05/05 02:07:38;;;;;;;12.53;7.03;;;;;6.70;96459.00;;;;8276778;28;20249;-68
2023/05/05 02:11:43;;;;;;;17.50;7.30;;;;;6.70;96457.00;;;;8276582;28;20241;-68
2023/05/05 02:15:47;;;;;;;16.40;7.43;;;;;6.70;96466.00;;;;8276812;28;20210;-68
2023/05/05 02:19:53;;;;;;;15.53;7.77;;;;;6.60;96457.00;;;;8273980;28;20233;-68
2023/05/05 02:23:57;;;;;;;18.90;8.33;;;;;6.50;96463.00;;;;8272302;28;20206;-68
2023/05/05 02:28:02;;;;;;;14.63;6.33;;;;;6.50;96460.00;;;;8276004;28;20213;-68
2023/05/05 02:32:16;;;;;;;14.23;7.50;;;;;6.40;96462.00;;;;8271498;28;20198;-68
2023/05/05 02:36:22;;;;;;;14.30;7.23;;;;;6.40;96457.00;;;;8273544;28;20255;-68
2023/05/05 02:40:34;;;;;;;17.70;8.23;;;;;6.40;96452.00;;;;8272653;28;20303;-68
2023/05/05 02:44:41;;;;;;;20.07;9.03;;;;;6.40;96444.00;;;;8267039;28;20679;-68
2023/05/05 02:48:45;;;;;;;21.23;9.87;;;;;6.60;96445.00;;;;8274394;28;20201;-67
2023/05/05 02:52:52;;;;;;;19.77;10.50;;;;;6.80;96450.00;;;;8272186;28;20287;-68
2023/05/05 02:56:59;;;;;;;20.37;10.00;;;;;7.00;96441.00;;;;8269657;28;20644;-67
2023/05/05 03:01:10;;;;;;;20.33;9.87;;;;;7.20;96445.00;;;;8304675;22;20268;-69
2023/05/05 03:05:20;;;;;;;20.97;9.90;;;;;7.30;96454.00;;;;8307543;22;20233;-68
2023/05/05 03:09:31;;;;;;;18.67;8.63;;;;;7.30;96452.00;;;;8286645;28;20201;-68
2023/05/05 03:13:42;;;;;;;13.87;6.90;;;;;7.30;96455.00;;;;8275087;28;20199;-68
2023/05/05 03:17:49;;;;;;;12.67;6.87;;;;;7.30;96457.00;;;;8284356;28;20220;-68
2023/05/05 03:21:55;;;;;;;17.93;6.93;;;;;7.10;96461.00;;;;8282723;28;20222;-69
2023/05/05 03:25:59;;;;;;;10.90;6.23;;;;;7.00;96456.00;;;;8285351;28;20266;-68
2023/05/05 03:30:04;;;;;;;14.43;7.87;;;;;6.90;96458.00;;;;8284470;28;20194;-68
2023/05/05 03:34:08;;;;;;;13.57;7.20;;;;;6.80;96461.00;;;;8284388;28;20210;-68
2023/05/05 03:38:12;;;;;;;14.03;7.20;;;;;6.70;96462.00;;;;8284881;28;20204;-68
2023/05/05 03:42:16;;;;;;;12.27;6.83;;;;;6.60;96458.00;;;;8285815;28;20261;-68
2023/05/05 03:46:26;;;;;;;12.63;7.10;;;;;6.50;96453.00;;;;8251388;28;20207;-67
2023/05/05 03:50:29;;;;;;;22.70;8.77;;;;;6.40;96451.00;;;;8247963;28;20778;-68
2023/05/05 03:54:35;;;;;;;13.27;7.77;;;;;6.30;96450.00;;;;8232290;28;20202;-68
2023/05/05 03:58:38;;;;;;;14.07;7.57;;;;;6.30;96448.00;;;;8265201;28;20198;-68
2023/05/05 04:02:44;;;;;;;17.27;8.73;;;;;6.30;96456.00;;;;8253744;28;20233;-68
2023/05/05 04:06:48;;;;;;;21.23;10.00;;;;;6.30;96450.00;;;;8267047;28;20193;-69
2023/05/05 04:10:51;;;;;;;22.07;9.80;;;;;6.40;96448.00;;;;8265141;28;20202;-69
2023/05/05 04:14:55;;;;;;;17.97;9.00;;;;;6.50;96445.00;;;;8258449;28;20209;-69
2023/05/05 04:19:02;;;;;;;20.43;10.67;;;;;6.60;96444.00;;;;8263337;28;20568;-69
2023/05/05 04:23:06;;;;;;;20.60;9.53;;;;;6.70;96443.00;;;;8259476;28;20207;-68
2023/05/05 04:27:09;;;;;;;18.87;9.93;;;;;6.80;96440.00;;;;8264742;28;20205;-69
2023/05/05 04:31:13;;;;;;;22.07;11.07;;;;;6.90;96445.00;;;;8232604;28;20203;-69
2023/05/05 04:35:20;;;;;;;22.60;11.10;;;;;7.20;96450.00;;;;8248672;28;20206;-68
2023/05/05 04:39:25;;;;;;;23.00;11.67;;;;;7.50;96445.00;;;;8252570;28;20854;-69
2023/05/05 04:43:31;;;;;;;22.67;10.80;;;;;7.80;96450.00;;;;8258445;28;20265;-68
2023/05/05 04:47:40;;;;;;;17.87;9.47;;;;;8.10;96455.00;;;;8280164;28;20250;-68
2023/05/05 04:51:45;;;;;;;15.03;8.30;;;;;8.20;96453.00;;;;8275218;28;20673;-68
2023/05/05 04:55:55;;;;;;;12.00;7.27;;;;;8.30;96464.00;;;;8262159;28;20198;-68
2023/05/05 05:00:00;;;;;;;12.50;7.50;;;;;8.40;96463.00;;;;8262003;28;20219;-68
2023/05/05 05:04:04;;;;;;;13.03;7.60;;;;;8.60;96465.00;;;;8268951;28;20318;-69
2023/05/05 05:08:17;;;;;;;12.80;7.30;;;;;8.80;96472.00;;;;8277849;28;20286;-69
2023/05/05 05:12:21;;;;;;;12.40;6.80;;;;;9.20;96475.00;;;;8272883;28;20246;-68
2023/05/05 05:16:33;;;;;;;17.23;7.10;;;;;9.40;96462.00;;;;8262594;28;20698;-68
2023/05/05 05:20:38;;;;;;;14.40;6.90;;;;;9.70;96470.00;;;;8253367;28;20281;-68
2023/05/05 05:24:45;;;;;;;10.67;7.23;;;;;10.10;96489.00;;;;8239567;28;20191;-69
2023/05/05 05:28:56;;;;;;;11.67;6.73;;;;;10.50;96487.00;;;;8255587;28;20867;-69
2023/05/05 05:33:04;;;;;;;12.07;6.60;;;;;10.80;96491.00;;;;8252386;28;20944;-69
2023/05/05 05:37:12;;;;;;;14.07;7.10;;;;;11.10;96490.00;;;;8250010;28;20616;-69
2023/05/05 05:41:17;;;;;;;11.82;6.72;;;;;11.50;96488.00;;;;8240832;28;20274;-69
2023/05/05 05:45:21;;;;;;;13.05;7.63;;;;;11.90;96488.00;;;;8256863;28;20195;-70
2023/05/05 05:49:24;;;;;;;11.20;7.80;;;;;12.50;96495.00;;;;8259381;28;20254;-71
2023/05/05 05:53:28;;;;;;;14.85;8.20;;;;;13.10;96505.00;;;;8258504;28;20202;-71
2023/05/05 05:57:32;;;;;;;12.32;7.22;;;;;13.70;96495.00;;;;8254235;28;20559;-70
2023/05/05 06:01:35;;;;;;;17.00;7.40;;;;;14.20;96506.00;;;;8255707;28;20237;-69
2023/05/05 06:05:39;;;;;;;10.10;7.07;;;;;14.50;96493.00;;;;8254007;28;20844;-69
2023/05/05 06:09:44;;;;;;;12.75;7.22;;;;;15.00;96500.00;;;;8250282;28;20207;-69
2023/05/05 06:13:53;;;;;;;10.48;6.38;;;;;15.30;96492.00;;;;8260078;28;20194;-70
2023/05/05 06:17:59;;;;;;;11.27;7.13;;;;;15.50;96493.00;;;;8251026;28;20569;-70
2023/05/05 06:22:07;;;;;;;16.38;7.47;;;;;15.80;96493.00;;;;8252132;28;20970;-70
2023/05/05 06:26:12;;;;;;;13.23;7.20;;;;;16.30;96498.00;;;;8255319;28;20243;-70
2023/05/05 06:30:17;;;;;;;14.20;7.28;;;;;17.10;96513.00;;;;8254858;28;20863;-71
2023/05/05 06:34:20;;;;;;;11.02;6.30;;;;;17.60;96526.00;;;;8254354;28;20191;-70
2023/05/05 06:38:23;;;;;;;12.80;7.35;;;;;17.90;96535.00;;;;8257964;28;20261;-72
2023/05/05 06:42:26;;;;;;;14.07;6.63;;;;;18.50;96536.00;;;;8256147;28;20832;-70
2023/05/05 06:46:31;;;;;;;12.65;7.32;;;;;18.70;96552.00;;;;8263679;28;20648;-70
2023/05/05 06:50:36;;;;;;;10.93;6.53;;;;;18.60;96551.00;;;;8267973;28;20214;-70
2023/05/05 06:54:40;;;;;;;8.80;6.40;;;;;18.90;96542.00;;;;8258336;28;20199;-69
2023/05/05 06:58:43;;;;;;;10.43;6.05;;;;;19.80;96546.00;;;;8266288;28;20195;-71
2023/05/05 07:02:48;;;;;;;11.18;6.93;;;;;20.10;96535.00;;;;8250579;28;20227;-70
2023/05/05 07:06:51;;;;;;;10.85;6.45;;;;;19.90;96529.00;;;;8255824;28;20202;-70
2023/05/05 07:10:54;;;;;;;10.63;6.93;;;;;20.20;96531.00;;;;8246150;28;20257;-71
2023/05/05 07:14:58;;;;;;;10.00;6.07;;;;;20.50;96531.00;;;;8247996;28;20206;-72
2023/05/05 07:19:08;;;;;;;14.30;6.35;;;;;21.40;96524.00;;;;8268261;28;20260;-71
2023/05/05 07:23:15;;;;;;;8.20;5.53;;;;;22.10;96532.00;;;;8252820;28;20222;-69
2023/05/05 07:27:18;;;;;;;14.98;6.30;;;;;22.80;96529.00;;;;8259865;28;20249;-69
2023/05/05 07:31:21;;;;;;;8.00;5.90;;;;;23.30;96522.00;;;;8249803;28;20213;-70
2023/05/05 07:35:29;;;;;;;10.98;6.25;;;;;23.80;96518.00;;;;8250327;28;20279;-70
2023/05/05 07:39:38;;;;;;;9.90;6.53;;;;;23.90;96529.00;;;;8261556;28;20211;-71
2023/05/05 07:43:42;;;;;;;9.57;6.15;;;;;24.40;96517.00;;;;8256626;28;20244;-71
2023/05/05 07:47:50;;;;;;;9.70;6.03;;;;;24.70;96523.00;;;;8251999;28;20286;-71
2023/05/05 07:51:57;;;;;;;8.15;5.82;;;;;25.10;96521.00;;;;8252837;28;20213;-70
2023/05/05 07:56:03;;;;;;;9.23;6.15;;;;;25.40;96518.00;;;;8251515;28;20191;-71
2023/05/05 08:00:10;;;;;;;9.32;5.95;;;;;25.60;96523.00;;;;8252974;28;20209;-71
2023/05/05 08:04:15;;;;;;;12.13;6.00;;;;;26.10;96520.00;;;;8222823;28;20931;-72
2023/05/05 08:08:23;;;;;;;8.15;6.07;;;;;26.20;96518.00;;;;8250908;28;20649;-71
2023/05/05 08:12:29;;;;;;;11.63;6.30;;;;;26.10;96516.00;;;;8266371;28;20195;-72
2023/05/05 08:16:33;;;;;;;11.15;6.32;;;;;26.00;96518.00;;;;8252553;28;20207;-71
2023/05/05 08:20:36;;;;;;;10.68;5.97;;;;;26.10;96523.00;;;;8259124;28;20238;-71
2023/05/05 08:24:41;;;;;;;10.77;6.13;;;;;26.40;96526.00;;;;8262717;28;20216;-70
2023/05/05 08:28:47;;;;;;;10.27;6.43;;;;;26.50;96532.00;;;;8266208;28;20683;-71
2023/05/05 08:32:51;;;;;;;13.27;6.60;;;;;26.40;96518.00;;;;8270282;28;20205;-71
2023/05/05 08:36:56;;;;;;;10.38;5.80;;;;;26.70;96514.00;;;;8265345;28;20222;-71
2023/05/05 08:41:01;;;;;;;9.15;5.70;;;;;27.10;96513.00;;;;8254672;28;20234;-71
2023/05/05 08:45:05;;;;;;;10.55;5.95;;;;;27.60;96515.00;;;;8272900;28;20254;-71
2023/05/05 08:49:15;;;;;;;11.43;6.32;;;;;28.00;96521.00;;;;8268027;28;20282;-71
2023/05/05 08:53:35;;;;;;;7.95;5.82;;;;;28.20;96524.00;;;;8257162;28;20207;-71
2023/05/05 08:57:44;;;;;;;9.00;6.22;;;;;28.70;96520.00;;;;8274701;28;20202;-72
2023/05/05 09:01:48;;;;;;;10.30;6.20;;;;;28.90;96522.00;;;;8277350;28;20261;-72
2023/05/05 09:05:55;;;;;;;12.25;6.32;;;;;29.30;96524.00;;;;8259526;28;20201;-72
2023/05/05 09:10:04;;;;;;;8.73;5.80;;;;;29.20;96519.00;;;;8249310;28;20209;-72
2023/05/05 09:14:09;;;;;;;12.35;6.40;;;;;29.50;96518.00;;;;8253016;28;20298;-72
2023/05/05 09:18:13;;;;;;;11.55;6.35;;;;;29.70;96516.00;;;;8248693;28;20281;-71
2023/05/05 09:22:32;;;;;;;11.63;7.00;;;;;29.70;96524.00;;;;8255021;28;20226;-72
2023/05/05 09:26:36;;;;;;;9.00;6.03;;;;;29.60;96519.00;;;;8247845;28;20281;-72
2023/05/05 09:30:42;;;;;;;10.60;7.25;;;;;29.80;96523.00;;;;8254384;28;20282;-73
2023/05/05 09:34:57;;;;;;;12.98;7.93;;;;;29.90;96516.00;;;;8249303;28;20223;-73
2023/05/05 09:39:08;;;;;;;12.07;7.50;;;;;29.90;96508.00;;;;8253324;28;20207;-73
2023/05/05 09:43:13;;;;;;;9.68;6.20;;;;;30.20;96511.00;;;;8253753;28;20300;-73
2023/05/05 09:47:20;;;;;;;10.07;6.25;;;;;30.50;96512.00;;;;8254513;28;20199;-72
2023/05/05 09:51:31;;;;;;;9.77;7.18;;;;;30.70;96506.00;;;;8257384;28;20315;-72
2023/05/05 09:55:37;;;;;;;12.20;6.95;;;;;30.00;96511.00;;;;8254915;28;20220;-72
2023/05/05 09:59:57;;;;;;;11.93;6.32;;;;;30.10;96511.00;;;;8254898;28;20910;-72
2023/05/05 10:04:03;;;;;;;13.70;7.50;;;;;30.40;96499.00;;;;8251415;28;20231;-72
2023/05/05 10:08:15;;;;;;;11.30;7.18;;;;;30.50;96515.00;;;;8263757;28;20257;-72
2023/05/05 10:12:20;;;;;;;12.40;6.50;;;;;30.70;96508.00;;;;8244152;28;20210;-73
2023/05/05 10:16:23;;;;;;;9.02;7.13;;;;;30.80;96503.00;;;;8249452;28;20207;-72
2023/05/05 10:20:32;;;;;;;9.00;6.70;;;;;31.30;96504.00;;;;8255567;28;20561;-73
2023/05/05 10:24:40;;;;;;;15.05;7.35;;;;;31.60;96501.00;;;;8248656;28;20233;-73
2023/05/05 10:28:48;;;;;;;10.45;6.78;;;;;31.40;96494.00;;;;8253033;28;20203;-73
2023/05/05 10:32:53;;;;;;;9.73;5.88;;;;;31.40;96497.00;;;;8247239;28;20191;-73
2023/05/05 10:37:22;;;;;;;5.72;5.10;;;;;31.70;96495.00;;;;8248840;28;20202;-73
2023/05/05 10:41:25;;;;;;;8.00;5.95;;;;;32.10;96491.00;;;;8253839;28;20228;-73
2023/05/05 10:45:29;;;;;;;6.80;4.95;;;;;32.20;96487.00;;;;8262848;28;21425;-73
2023/05/05 10:49:43;;;;;;;6.72;5.07;;;;;32.50;96483.00;;;;8265644;28;20223;-71
2023/05/05 10:53:55;;;;;;;6.00;4.95;;;;;32.50;96477.00;;;;8261196;28;20212;-73
2023/05/05 10:58:04;;;;;;;9.45;5.32;;;;;32.60;96474.00;;;;8263720;28;20215;-73
2023/05/05 11:02:22;;;;;;;6.93;5.18;;;;;32.70;96467.00;;;;8240904;28;20632;-71
2023/05/05 11:06:27;;;;;;;9.50;5.07;;;;;33.00;96462.00;;;;8250602;28;20286;-71
2023/05/05 11:10:50;;;;;;;11.13;4.55;;;;;33.40;96463.00;;;;8279461;28;20202;-71
2023/05/05 11:15:42;;;;;;;11.40;4.70;;;;;33.50;96446.00;;;;8254430;28;20269;-73
2023/05/05 11:19:51;;;;;;;8.02;4.88;;;;;34.00;96448.00;;;;8212683;28;20198;-72
2023/05/05 11:23:54;;;;;;;12.05;4.90;;;;;34.30;96442.00;;;;8264774;28;20227;-72
2023/05/05 11:28:08;;;;;;;5.93;4.68;;;;;34.10;96432.00;;;;8253199;28;20806;-72
2023/05/05 11:32:14;;;;;;;7.57;4.45;;;;;34.20;96429.00;;;;8254060;28;20198;-72
2023/05/05 11:36:25;;;;;;;8.20;5.10;;;;;34.40;96431.00;;;;8249983;28;20664;-72
2023/05/05 11:40:37;;;;;;;4.90;4.18;;;;;34.70;96424.00;;;;8244556;28;20214;-72
2023/05/05 11:44:41;;;;;;;5.57;3.97;;;;;35.10;96416.00;;;;8252133;28;20321;-73
2023/05/05 11:48:47;;;;;;;7.85;4.07;;;;;35.40;96416.00;;;;8257932;28;20194;-73
2023/05/05 11:52:54;;;;;;;6.00;4.60;;;;;35.30;96413.00;;;;8266708;28;20615;-72
2023/05/05 11:57:00;;;;;;;5.75;3.78;;;;;35.40;96411.00;;;;8259869;28;20207;-72
2023/05/05 12:01:12;;;;;;;4.93;3.63;;;;;35.50;96409.00;;;;8258496;28;20254;-72
2023/05/05 12:05:20;;;;;;;5.93;3.80;;;;;35.60;96405.00;;;;8253992;28;20222;-74
2023/05/05 12:09:24;;;;;;;5.93;4.20;;;;;35.30;96397.00;;;;8253026;28;20209;-73
2023/05/05 12:13:28;;;;;;;8.13;4.03;;;;;34.50;96392.00;;;;8257138;28;20254;-73
2023/05/05 12:17:41;;;;;;;6.30;3.88;;;;;33.60;96390.00;;;;8267675;28;20202;-73
2023/05/05 12:21:45;;;;;;;5.20;3.72;;;;;33.20;96393.00;;;;8259204;28;20252;-73
2023/05/05 12:25:50;;;;;;;6.75;3.97;;;;;32.40;96387.00;;;;8261977;28;20202;-73
2023/05/05 12:29:55;;;;;;;5.72;3.95;;;;;31.40;96390.00;;;;8265526;28;20198;-73
2023/05/05 12:33:59;;;;;;;2.75;2.60;;;;;30.80;96387.00;;;;8264824;28;20225;-73
2023/05/05 12:38:08;;;;;;;7.30;3.40;;;;;30.30;96384.00;;;;8271200;28;20194;-72
2023/05/05 12:42:25;;;;;;;6.95;3.03;;;;;29.90;96382.00;;;;8273009;28;20248;-71
2023/05/05 12:46:30;;;;;;;4.57;2.85;;;;;29.70;96388.00;;;;8268292;28;20195;-72
2023/05/05 12:50:38;;;;;;;5.32;3.25;;;;;29.70;96383.00;;;;8266359;28;20658;-71
2023/05/05 12:54:54;;;;;;;3.28;2.97;;;;;29.60;96393.00;;;;8271351;28;20221;-71
2023/05/05 12:58:58;;;;;;;3.17;2.88;;;;;29.30;96389.00;;;;8264728;28;20206;-71
2023/05/05 13:03:01;;;;;;;5.82;3.40;;;;;29.00;96390.00;;;;8261021;28;20278;-71
2023/05/05 13:07:13;;;;;;;7.20;3.20;;;;;28.60;96385.00;;;;8265595;28;20238;-72
2023/05/05 13:11:17;;;;;;;6.85;3.17;;;;;28.30;96375.00;;;;8257896;28;20683;-71
2023/05/05 13:15:20;;;;;;;3.38;3.08;;;;;28.00;96378.00;;;;8259216;28;20301;-72
2023/05/05 13:19:23;;;;;;;4.63;3.55;;;;;27.70;96373.00;;;;8258959;28;20254;-72
2023/05/05 13:23:28;;;;;;;3.40;3.10;;;;;27.40;96371.00;;;;8250039;28;20203;-72
2023/05/05 13:27:31;;;;;;;3.33;3.10;;;;;27.00;96360.00;;;;8251151;28;20213;-72
2023/05/05 13:31:35;;;;;;;7.95;3.67;;;;;26.60;96364.00;;;;8254141;28;20506;-72
2023/05/05 13:35:38;;;;;;;6.53;3.50;;;;;26.40;96364.00;;;;8253270;28;20231;-71
2023/05/05 13:39:43;;;;;;;3.38;3.08;;;;;26.10;96378.00;;;;8253793;28;20862;-72
2023/05/05 13:43:46;;;;;;;4.63;3.67;;;;;25.40;96372.00;;;;8250399;28;20203;-71
2023/05/05 13:47:52;;;;;;;7.18;4.07;;;;;24.70;96373.00;;;;8255287;28;20252;-70
2023/05/05 13:51:57;;;;;;;6.65;4.60;;;;;23.90;96380.00;;;;8253001;28;20715;-72
2023/05/05 13:56:04;;;;;;;6.05;4.55;;;;;22.80;96371.00;;;;8252159;28;20222;-74
2023/05/05 14:00:14;;;;;;;7.65;5.50;;;;;22.10;96367.00;;;;8258069;28;20281;-73
2023/05/05 14:04:18;;;;;;;10.65;5.60;;;;;21.90;96358.00;;;;8254007;28;20235;-71
2023/05/05 14:08:21;;;;;;;7.38;4.82;;;;;21.90;96349.00;;;;8249142;28;20210;-71
2023/05/05 14:12:30;;;;;;;7.43;5.10;;;;;22.10;96352.00;;;;8261272;28;20282;-69
2023/05/05 14:16:33;;;;;;;5.40;4.85;;;;;22.60;96344.00;;;;8253600;28;20741;-71
2023/05/05 14:20:41;;;;;;;6.75;4.82;;;;;23.30;96339.00;;;;8251174;28;20222;-70
2023/05/05 14:24:45;;;;;;;7.47;5.32;;;;;23.90;96335.00;;;;8253917;28;20199;-69
2023/05/05 14:28:54;;;;;;;7.38;5.07;;;;;24.20;96336.00;;;;8247798;28;20997;-69
2023/05/05 14:32:59;;;;;;;9.52;4.55;;;;;24.50;96333.00;;;;8250484;28;20227;-69
2023/05/05 14:37:06;;;;;;;7.05;4.80;;;;;24.80;96328.00;;;;8254620;28;20216;-69
2023/05/05 14:41:09;;;;;;;8.32;5.45;;;;;24.70;96339.00;;;;8260450;28;20497;-69
2023/05/05 14:45:16;;;;;;;9.07;5.80;;;;;24.40;96329.00;;;;8253555;28;20229;-69
2023/05/05 14:49:19;;;;;;;5.35;4.80;;;;;24.50;96329.00;;;;8250951;28;20219;-68
2023/05/05 14:53:27;;;;;;;5.80;4.93;;;;;24.70;96323.00;;;;8248754;28;20960;-68
2023/05/05 14:57:32;;;;;;;5.25;4.55;;;;;24.80;96318.00;;;;8250867;28;20822;-67
2023/05/05 15:01:39;;;;;;;12.07;4.68;;;;;24.80;96317.00;;;;8254346;28;20225;-68
2023/05/05 15:05:42;;;;;;;4.05;3.75;;;;;24.90;96319.00;;;;8248496;28;20656;-68
2023/05/05 15:09:45;;;;;;;6.40;4.35;;;;;24.90;96314.00;;;;8253115;28;20712;-68
2023/05/05 15:13:48;;;;;;;5.75;4.55;;;;;24.90;96315.00;;;;8225295;28;20935;-68
2023/05/05 15:17:53;;;;;;;5.13;4.40;;;;;25.00;96314.00;;;;8251827;28;20203;-68
2023/05/05 15:21:58;;;;;;;5.88;4.07;;;;;24.80;96301.00;;;;8251333;28;20198;-69
2023/05/05 15:26:01;;;;;;;3.88;3.33;;;;;24.70;96308.00;;;;8247180;28;20198;-68
2023/05/05 15:30:06;;;;;;;4.15;3.72;;;;;24.50;96299.00;;;;8236492;28;20191;-68
2023/05/05 15:34:18;;;;;;;4.28;3.88;;;;;24.30;96306.00;;;;8253413;28;20237;-69
2023/05/05 15:38:24;;;;;;;4.25;3.85;;;;;24.00;96293.00;;;;8250412;28;20191;-68
2023/05/05 15:42:32;;;;;;;5.70;4.03;;;;;23.80;96294.00;;;;8243270;28;20223;-68
2023/05/05 15:46:35;;;;;;;6.78;4.28;;;;;23.80;96278.00;;;;8253995;28;20213;-69
2023/05/05 15:50:40;;;;;;;4.22;3.85;;;;;23.70;96279.00;;;;8252164;28;20207;-69
2023/05/05 15:54:46;;;;;;;7.53;3.70;;;;;23.50;96280.00;;;;8243954;28;21044;-69
2023/05/05 15:58:49;;;;;;;5.53;4.10;;;;;23.40;96274.00;;;;8248854;28;20261;-69
2023/05/05 16:02:53;;;;;;;4.70;3.83;;;;;23.30;96274.00;;;;8250411;28;20230;-69
2023/05/05 16:07:00;;;;;;;4.63;3.80;;;;;23.10;96262.00;;;;8248437;28;20206;-71
2023/05/05 16:11:03;;;;;;;10.38;4.30;;;;;23.00;96266.00;;;;8247475;28;20242;-68
2023/05/05 16:15:07;;;;;;;6.28;4.43;;;;;22.90;96255.00;;;;8241874;28;20326;-67
2023/05/05 16:19:12;;;;;;;6.30;4.80;;;;;22.80;96254.00;;;;8238482;28;20225;-69
2023/05/05 16:23:16;;;;;;;5.90;4.30;;;;;22.70;96255.00;;;;8252673;28;20859;-69
2023/05/05 16:27:33;;;;;;;6.38;4.90;;;;;22.50;96248.00;;;;8246378;28;20824;-68
2023/05/05 16:31:45;;;;;;;5.35;4.15;;;;;22.40;96254.00;;;;8245898;28;20278;-68
2023/05/05 16:35:48;;;;;;;7.15;5.05;;;;;22.40;96254.00;;;;8244757;28;20816;-68
2023/05/05 16:39:53;;;;;;;9.25;5.38;;;;;22.30;96247.00;;;;8265774;28;20803;-69
2023/05/05 16:43:56;;;;;;;8.73;4.93;;;;;22.30;96246.00;;;;8256572;28;20199;-67
2023/05/05 16:48:01;;;;;;;4.15;3.75;;;;;22.30;96246.00;;;;8241625;28;20655;-68
2023/05/05 16:52:04;;;;;;;4.43;3.67;;;;;22.40;96243.00;;;;8269746;28;20250;-68
2023/05/05 16:56:15;;;;;;;7.93;4.70;;;;;22.80;96247.00;;;;8271617;28;20665;-68
2023/05/05 17:00:19;;;;;;;4.70;3.80;;;;;22.80;96248.00;;;;8258601;28;20253;-68
2023/05/05 17:04:22;;;;;;;5.35;4.35;;;;;22.80;96242.00;;;;8271876;28;20233;-69
2023/05/05 17:08:27;;;;;;;6.35;3.97;;;;;22.70;96246.00;;;;8265522;28;20635;-68
2023/05/05 17:12:31;;;;;;;6.68;3.83;;;;;22.60;96244.00;;;;8277758;28;20561;-69
2023/05/05 17:16:42;;;;;;;3.90;3.60;;;;;22.40;96244.00;;;;8263516;28;21001;-68
2023/05/05 17:20:45;;;;;;;4.75;3.83;;;;;22.30;96249.00;;;;8282464;28;20351;-68
2023/05/05 17:24:51;;;;;;;5.75;4.22;;;;;22.30;96237.00;;;;8271486;28;20291;-68
2023/05/05 17:29:04;;;;;;;4.07;3.78;;;;;22.20;96240.00;;;;8271116;28;20198;-68
2023/05/05 17:33:07;;;;;;;4.40;4.00;;;;;22.10;96229.00;;;;8275993;28;20623;-68
2023/05/05 17:37:15;;;;;;;4.78;4.00;;;;;22.10;96229.00;;;;8262106;28;20223;-69
2023/05/05 17:41:20;;;;;;;7.25;4.32;;;;;21.90;96228.00;;;;8268535;28;20222;-68
2023/05/05 17:45:25;;;;;;;5.68;5.03;;;;;21.70;96233.00;;;;8249186;28;20203;-68
2023/05/05 17:49:31;;;;;;;8.65;4.68;;;;;21.30;96228.00;;;;8266143;28;20274;-68
2023/05/05 17:53:34;;;;;;;7.63;4.40;;;;;21.10;96231.00;;;;8258561;28;20199;-68
2023/05/05 17:57:38;;;;;;;4.97;4.47;;;;;21.00;96229.00;;;;8240403;28;20622;-68
2023/05/05 18:01:42;;;;;;;6.43;4.57;;;;;21.00;96211.00;;;;8258954;28;20648;-68
2023/05/05 18:05:46;;;;;;;7.72;4.63;;;;;20.90;96199.00;;;;8260834;28;20246;-68
2023/05/05 18:09:53;;;;;;;8.00;5.22;;;;;20.60;96199.00;;;;8259305;28;20191;-68
2023/05/05 18:13:57;;;;;;;6.70;5.68;;;;;20.40;96188.00;;;;8257938;28;20737;-68
2023/05/05 18:18:05;;;;;;;10.10;6.10;;;;;20.20;96188.00;;;;8257041;28;20586;-68
2023/05/05 18:22:09;;;;;;;5.60;4.93;;;;;20.00;96188.00;;;;8261895;28;20191;-68
2023/05/05 18:26:12;;;;;;;8.18;6.25;;;;;19.90;96188.00;;;;8260119;28;20638;-68
2023/05/05 18:30:20;;;;;;;7.45;5.70;;;;;19.70;96187.00;;;;8259840;28;20270;-68
2023/05/05 18:34:28;;;;;;;10.57;5.53;;;;;19.60;96180.00;;;;8260406;28;20254;-68
2023/05/05 18:38:31;;;;;;;5.72;4.93;;;;;19.40;96180.00;;;;8260944;28;20715;-68
2023/05/05 18:42:35;;;;;;;7.05;5.55;;;;;19.10;96174.00;;;;8260160;28;20245;-68
2023/05/05 18:46:42;;;;;;;7.53;5.30;;;;;18.90;96168.00;;;;8264812;28;20711;-68
2023/05/05 18:50:49;;;;;;;11.73;7.05;;;;;18.60;96164.00;;;;8256411;28;20233;-68
2023/05/05 18:54:56;;;;;;;6.32;5.57;;;;;18.50;96167.00;;;;8265128;28;20219;-68
2023/05/05 18:59:03;;;;;;;6.13;5.45;;;;;18.50;96183.00;;;;8266037;28;20558;-68
2023/05/05 19:03:09;;;;;;;6.50;5.07;;;;;18.50;96202.00;;;;8264625;28;20234;-68
2023/05/05 19:07:16;;;;;;;5.63;5.00;;;;;18.60;96222.00;;;;8250729;28;20199;-68
2023/05/05 19:11:40;;;;;;;6.07;5.40;;;;;18.70;96210.00;;;;8264420;28;20225;-68
2023/05/05 19:15:43;;;;;;;7.43;5.80;;;;;18.70;96207.00;;;;8251658;28;20234;-68
2023/05/05 19:19:46;;;;;;;7.55;6.22;;;;;18.70;96210.00;;;;8258562;28;20238;-68
2023/05/05 19:23:51;;;;;;;10.75;6.32;;;;;18.70;96217.00;;;;8259073;28;20647;-69
2023/05/05 19:28:04;;;;;;;9.68;6.38;;;;;18.60;96205.00;;;;8264702;28;20254;-69
2023/05/05 19:32:12;;;;;;;11.27;7.00;;;;;18.60;96206.00;;;;8260098;28;20199;-69
2023/05/05 19:36:15;;;;;;;11.27;6.57;;;;;18.60;96217.00;;;;8268274;28;20244;-69
2023/05/05 19:40:19;;;;;;;10.52;6.80;;;;;18.50;96213.00;;;;8274916;28;20194;-69
2023/05/05 19:44:24;;;;;;;9.13;7.05;;;;;18.30;96216.00;;;;8258870;28;20298;-69
2023/05/05 19:48:27;;;;;;;9.82;7.90;;;;;18.10;96231.00;;;;8247726;28;20203;-69
2023/05/05 19:52:32;;;;;;;9.55;7.15;;;;;18.00;96235.00;;;;8250299;28;20249;-68
2023/05/05 19:56:43;;;;;;;12.93;6.55;;;;;18.00;96238.00;;;;8252674;28;20222;-69
2023/05/05 20:00:48;;;;;;;12.55;6.93;;;;;17.80;96236.00;;;;8248877;28;20206;-69
2023/05/05 20:04:54;;;;;;;14.77;7.57;;;;;17.60;96232.00;;;;8250188;28;20222;-70
2023/05/05 20:08:59;;;;;;;13.02;7.85;;;;;17.30;96241.00;;;;8255549;28;20369;-71
2023/05/05 20:13:06;;;;;;;12.23;8.10;;;;;17.20;96240.00;;;;8257703;28;20234;-75
2023/05/05 20:17:11;;;;;;;13.95;7.75;;;;;17.10;96238.00;;;;8254884;28;20805;-72
2023/05/05 20:21:17;;;;;;;11.23;7.97;;;;;16.90;96257.00;;;;8258611;28;20238;-74
2023/05/05 20:25:23;;;;;;;13.65;8.52;;;;;16.70;96251.00;;;;8251092;28;20202;-74
2023/05/05 20:29:29;;;;;;;14.02;9.43;;;;;16.50;96266.00;;;;8257247;28;20213;-75
2023/05/05 20:33:32;;;;;;;19.85;9.07;;;;;16.40;96301.00;;;;8251738;28;20195;-73